Time;durP1;ratioP1;P1;durP2;ratioP2;P2;SDS_P1;SDS_P2;PMS_P1;PMS_P2;Temp;Humidity;BMP_temperature;BMP_pressure;BME280_temperature;BME280_humidity;BME280_pressure;Samples;Min_cycle;Max_cycle;Signal;HPM_P1;HPM_P2
2021/09/07 00:00:43;;;;;;;18.30;9.37;;;15.30;99.90;;;;;;4826061;29;20593;-63
2021/09/07 00:03:09;;;;;;;10.90;8.93;;;15.30;99.90;;;;;;4824728;29;20197;-62
2021/09/07 00:05:34;;;;;;;12.23;9.00;;;15.30;99.90;;;;;;4825993;29;20206;-63
2021/09/07 00:08:00;;;;;;;12.73;9.17;;;15.20;99.90;;;;;;4825843;29;20182;-62
2021/09/07 00:10:26;;;;;;;14.30;9.30;;;15.10;99.90;;;;;;4824685;29;20178;-63
2021/09/07 00:12:51;;;;;;;13.23;9.50;;;15.10;99.90;;;;;;4824576;29;20217;-62
2021/09/07 00:15:18;;;;;;;11.90;8.80;;;15.10;99.90;;;;;;4825662;29;20692;-62
2021/09/07 00:17:44;;;;;;;12.63;8.20;;;15.10;99.90;;;;;;4825639;29;20182;-62
2021/09/07 00:20:11;;;;;;;10.07;7.90;;;15.10;99.90;;;;;;4824769;29;20426;-62
2021/09/07 00:22:38;;;;;;;13.23;9.47;;;15.00;99.90;;;;;;4825638;29;20416;-62
2021/09/07 00:25:05;;;;;;;13.23;8.47;;;15.00;99.90;;;;;;4825663;29;20429;-62
2021/09/07 00:27:31;;;;;;;11.07;9.03;;;15.00;99.90;;;;;;4825609;29;20413;-63
2021/09/07 00:29:57;;;;;;;12.07;9.07;;;15.00;99.90;;;;;;4825934;29;20461;-64
2021/09/07 00:32:23;;;;;;;11.23;8.00;;;14.90;99.90;;;;;;4825646;29;20657;-63
2021/09/07 00:34:48;;;;;;;13.83;8.33;;;14.90;99.90;;;;;;4825403;29;20526;-62
2021/09/07 00:37:14;;;;;;;11.43;8.50;;;14.80;99.90;;;;;;4825544;29;20221;-64
2021/09/07 00:39:39;;;;;;;12.20;8.23;;;14.80;99.90;;;;;;4825852;29;20210;-62
2021/09/07 00:42:05;;;;;;;15.70;8.80;;;14.80;99.90;;;;;;4825519;29;20181;-63
2021/09/07 00:44:31;;;;;;;11.83;8.03;;;14.80;99.90;;;;;;4825747;29;20210;-62
2021/09/07 00:47:00;;;;;;;11.37;8.57;;;14.70;99.90;;;;;;4824104;29;20189;-62
2021/09/07 00:49:28;;;;;;;13.60;8.23;;;14.70;99.90;;;;;;4825301;29;20442;-62
2021/09/07 00:51:55;;;;;;;12.13;8.70;;;14.70;99.90;;;;;;4825272;29;20516;-62
2021/09/07 00:54:24;;;;;;;10.70;7.87;;;14.70;99.90;;;;;;4825594;29;20508;-62
2021/09/07 00:56:52;;;;;;;12.57;8.77;;;14.70;99.90;;;;;;4825221;29;20413;-63
2021/09/07 00:59:20;;;;;;;11.40;9.10;;;14.70;99.90;;;;;;4825493;29;20810;-62
2021/09/07 01:01:46;;;;;;;13.30;8.90;;;14.60;99.90;;;;;;4823882;29;20456;-62
2021/09/07 01:04:11;;;;;;;13.20;8.90;;;14.60;99.90;;;;;;4823991;29;20458;-62
2021/09/07 01:06:37;;;;;;;12.50;9.10;;;14.60;99.90;;;;;;4825115;29;20178;-62
2021/09/07 01:09:03;;;;;;;9.30;7.67;;;14.60;99.90;;;;;;4825239;29;20202;-62
2021/09/07 01:11:28;;;;;;;13.23;9.03;;;14.60;99.90;;;;;;4824998;29;20294;-62
2021/09/07 01:13:54;;;;;;;11.70;8.00;;;14.60;99.90;;;;;;4824780;29;20449;-63
2021/09/07 01:16:20;;;;;;;11.87;8.30;;;14.60;99.90;;;;;;4824951;29;20185;-63
2021/09/07 01:18:45;;;;;;;10.37;7.70;;;14.60;99.90;;;;;;4825050;29;20668;-62
2021/09/07 01:21:12;;;;;;;12.53;8.57;;;14.60;99.90;;;;;;4824958;29;20186;-62
2021/09/07 01:23:43;;;;;;;14.73;8.40;;;14.60;99.90;;;;;;4825048;29;20247;-63
2021/09/07 01:26:14;;;;;;;21.20;8.77;;;14.50;99.90;;;;;;4823670;29;20433;-63
2021/09/07 01:28:41;;;;;;;11.50;8.00;;;14.50;99.90;;;;;;4824714;29;20469;-63
2021/09/07 01:31:07;;;;;;;11.67;8.27;;;14.50;99.90;;;;;;4824383;29;20947;-62
2021/09/07 01:33:33;;;;;;;11.07;8.53;;;14.50;99.90;;;;;;4828556;29;20453;-63
2021/09/07 01:36:00;;;;;;;10.70;7.97;;;14.50;99.90;;;;;;4828140;29;20481;-62
2021/09/07 01:38:27;;;;;;;11.90;8.30;;;14.40;99.90;;;;;;4827004;29;20452;-62
2021/09/07 01:40:53;;;;;;;16.53;8.10;;;14.40;99.90;;;;;;4827106;29;20428;-62
2021/09/07 01:43:19;;;;;;;11.23;8.30;;;14.30;99.90;;;;;;4828217;29;20455;-62
2021/09/07 01:45:50;;;;;;;16.53;8.37;;;14.30;99.90;;;;;;4828217;29;20495;-62
2021/09/07 01:48:21;;;;;;;12.77;8.40;;;14.30;99.90;;;;;;4826932;29;20217;-62
2021/09/07 01:50:47;;;;;;;12.60;8.83;;;14.20;99.90;;;;;;4828089;29;20427;-62
2021/09/07 01:53:13;;;;;;;12.20;9.43;;;14.20;99.90;;;;;;4828009;29;20516;-62
2021/09/07 01:55:39;;;;;;;11.60;8.80;;;14.20;99.90;;;;;;4827987;29;20472;-63
2021/09/07 01:58:05;;;;;;;12.10;7.37;;;14.20;99.90;;;;;;4828065;29;20222;-62
2021/09/07 02:00:31;;;;;;;13.27;8.60;;;14.20;99.90;;;;;;4828027;29;20444;-63
2021/09/07 02:02:57;;;;;;;14.97;8.90;;;14.10;99.90;;;;;;4827887;29;20202;-62
2021/09/07 02:05:22;;;;;;;12.47;8.70;;;14.10;99.90;;;;;;4827860;29;20417;-63
2021/09/07 02:07:48;;;;;;;12.10;8.30;;;14.10;99.90;;;;;;4826443;29;20418;-62
2021/09/07 02:10:15;;;;;;;8.27;7.10;;;14.00;99.90;;;;;;4827697;29;20205;-63
2021/09/07 02:12:40;;;;;;;10.77;8.17;;;14.00;99.90;;;;;;4827650;29;20642;-62
2021/09/07 02:15:07;;;;;;;11.33;8.00;;;13.90;99.90;;;;;;4827597;29;20572;-62
2021/09/07 02:17:33;;;;;;;12.20;8.83;;;13.90;99.90;;;;;;4827674;29;20656;-63
2021/09/07 02:19:59;;;;;;;14.57;9.70;;;13.80;99.90;;;;;;4827955;29;20458;-62
2021/09/07 02:22:25;;;;;;;15.57;9.20;;;13.80;99.90;;;;;;4827597;29;20409;-62
2021/09/07 02:24:51;;;;;;;10.27;8.00;;;13.80;99.90;;;;;;4827419;29;20205;-62
2021/09/07 02:27:17;;;;;;;13.88;8.55;;;13.80;99.90;;;;;;4827510;29;20492;-62
2021/09/07 02:29:43;;;;;;;12.27;8.47;;;13.70;99.90;;;;;;4827819;29;20350;-63
2021/09/07 02:32:09;;;;;;;10.87;8.57;;;13.70;99.90;;;;;;4827444;29;20417;-63
2021/09/07 02:34:35;;;;;;;13.03;8.33;;;13.70;99.90;;;;;;4827262;29;20253;-64
2021/09/07 02:37:00;;;;;;;16.10;8.90;;;13.70;99.90;;;;;;4827280;29;20817;-62
2021/09/07 02:39:26;;;;;;;12.40;8.23;;;13.70;99.90;;;;;;4827627;29;20566;-62
2021/09/07 02:41:52;;;;;;;11.53;8.30;;;13.70;99.90;;;;;;4827188;29;20178;-63
2021/09/07 02:44:18;;;;;;;15.20;8.70;;;13.70;99.90;;;;;;4826557;29;20212;-62
2021/09/07 02:46:44;;;;;;;14.63;9.43;;;13.70;99.90;;;;;;4827246;29;20207;-63
2021/09/07 02:49:10;;;;;;;11.97;8.20;;;13.70;99.90;;;;;;4827353;29;20493;-62
2021/09/07 02:51:36;;;;;;;13.80;9.67;;;13.70;99.90;;;;;;4827220;29;20474;-64
2021/09/07 02:54:01;;;;;;;12.03;8.53;;;13.60;99.90;;;;;;4826781;29;20448;-63
2021/09/07 02:56:27;;;;;;;13.70;9.27;;;13.60;99.90;;;;;;4827061;29;20190;-62
2021/09/07 02:58:52;;;;;;;10.90;8.93;;;13.60;99.90;;;;;;4827144;29;20722;-62
2021/09/07 03:01:18;;;;;;;9.77;7.97;;;13.60;99.90;;;;;;4826968;29;20186;-63
2021/09/07 03:03:44;;;;;;;14.83;8.90;;;13.60;99.90;;;;;;4827052;29;20218;-62
2021/09/07 03:06:09;;;;;;;12.87;8.13;;;13.70;99.90;;;;;;4826862;29;20189;-62
2021/09/07 03:08:35;;;;;;;14.30;8.53;;;13.70;99.90;;;;;;4826665;29;20278;-62
2021/09/07 03:11:01;;;;;;;14.23;9.03;;;13.70;99.90;;;;;;4826704;29;20247;-62
2021/09/07 03:13:26;;;;;;;14.73;7.50;;;13.80;99.90;;;;;;4826847;29;20210;-62
2021/09/07 03:15:52;;;;;;;17.17;7.90;;;13.80;99.90;;;;;;4826622;29;20217;-62
2021/09/07 03:18:17;;;;;;;16.63;9.43;;;13.80;99.90;;;;;;4827014;29;20210;-62
2021/09/07 03:20:43;;;;;;;17.47;10.30;;;13.80;99.90;;;;;;4826627;29;20645;-62
2021/09/07 03:23:09;;;;;;;15.20;9.60;;;13.90;99.90;;;;;;4826587;29;20193;-62
2021/09/07 03:25:34;;;;;;;16.60;9.37;;;13.90;99.90;;;;;;4826435;29;20672;-63
2021/09/07 03:28:00;;;;;;;17.27;9.20;;;13.90;99.90;;;;;;4826486;29;20634;-62
2021/09/07 03:30:26;;;;;;;15.57;10.27;;;14.00;99.90;;;;;;4826570;29;20189;-62
2021/09/07 03:32:52;;;;;;;18.37;11.63;;;14.00;99.90;;;;;;4826404;29;20549;-63
2021/09/07 03:35:18;;;;;;;15.30;9.27;;;14.00;99.90;;;;;;4826132;29;20489;-62
2021/09/07 03:37:44;;;;;;;12.90;9.20;;;14.00;99.90;;;;;;4826289;29;20178;-62
2021/09/07 03:40:11;;;;;;;13.67;8.90;;;14.10;99.90;;;;;;4825085;29;20437;-62
2021/09/07 03:42:38;;;;;;;13.30;9.15;;;14.10;99.90;;;;;;4826377;29;20453;-63
2021/09/07 03:45:05;;;;;;;18.93;11.00;;;14.00;99.90;;;;;;4826283;29;20613;-62
2021/09/07 03:47:31;;;;;;;15.23;8.83;;;14.00;99.90;;;;;;4826212;29;20416;-62
2021/09/07 03:49:57;;;;;;;16.20;9.60;;;14.00;99.90;;;;;;4826519;29;20465;-62
2021/09/07 03:52:23;;;;;;;11.33;8.27;;;13.90;99.90;;;;;;4826176;29;20427;-63
2021/09/07 03:54:48;;;;;;;13.00;9.17;;;13.90;99.90;;;;;;4826205;29;20222;-62
2021/09/07 03:57:14;;;;;;;15.60;9.33;;;13.90;99.90;;;;;;4826181;29;20188;-62
2021/09/07 03:59:40;;;;;;;14.10;8.40;;;13.90;99.90;;;;;;4824608;29;20277;-62
2021/09/07 04:02:06;;;;;;;16.67;11.13;;;13.90;99.90;;;;;;4825618;29;20189;-62
2021/09/07 04:04:31;;;;;;;16.87;10.43;;;13.90;99.90;;;;;;4824618;29;20216;-62
2021/09/07 04:06:57;;;;;;;13.90;9.60;;;13.90;99.90;;;;;;4825910;29;20406;-62
2021/09/07 04:09:23;;;;;;;16.77;9.40;;;13.90;99.90;;;;;;4824573;29;20217;-62
2021/09/07 04:11:50;;;;;;;12.90;8.53;;;13.90;99.90;;;;;;4824547;29;20189;-64
2021/09/07 04:14:16;;;;;;;14.30;9.00;;;14.00;99.90;;;;;;4825997;29;20879;-63
2021/09/07 04:16:42;;;;;;;11.63;9.00;;;14.00;99.90;;;;;;4825545;29;20422;-62
2021/09/07 04:19:08;;;;;;;13.20;10.23;;;14.00;99.90;;;;;;4826027;29;20495;-62
2021/09/07 04:21:34;;;;;;;21.20;9.93;;;14.00;99.90;;;;;;4825675;29;20927;-63
2021/09/07 04:23:59;;;;;;;11.80;8.30;;;14.00;99.90;;;;;;4825802;29;20449;-62
2021/09/07 04:26:25;;;;;;;10.07;8.13;;;14.00;99.90;;;;;;4825716;29;20193;-63
2021/09/07 04:28:51;;;;;;;18.27;9.40;;;14.00;99.90;;;;;;4825701;29;20210;-63
2021/09/07 04:31:18;;;;;;;14.57;8.20;;;13.90;99.90;;;;;;4824313;29;20453;-62
2021/09/07 04:33:44;;;;;;;12.43;8.63;;;13.90;99.90;;;;;;4824263;29;20258;-62
2021/09/07 04:36:10;;;;;;;18.77;9.27;;;13.90;99.90;;;;;;4822355;29;20496;-63
2021/09/07 04:38:36;;;;;;;12.47;9.27;;;13.90;99.90;;;;;;4823557;29;20982;-64
2021/09/07 04:41:01;;;;;;;12.70;8.80;;;13.90;99.90;;;;;;4822879;29;20636;-62
2021/09/07 04:43:27;;;;;;;15.97;9.73;;;13.90;99.90;;;;;;4823568;29;20467;-63
2021/09/07 04:45:53;;;;;;;20.43;10.73;;;13.90;99.90;;;;;;4823321;29;20664;-63
2021/09/07 04:48:19;;;;;;;20.37;10.70;;;13.90;99.90;;;;;;4823226;29;20205;-62
2021/09/07 04:50:44;;;;;;;16.80;10.00;;;13.90;99.90;;;;;;4822850;29;20182;-64
2021/09/07 04:53:10;;;;;;;11.47;8.80;;;14.00;99.90;;;;;;4823040;29;20438;-62
2021/09/07 04:55:36;;;;;;;14.53;9.33;;;14.00;99.90;;;;;;4824564;29;20546;-62
2021/09/07 04:58:02;;;;;;;13.47;8.93;;;14.00;99.90;;;;;;4825401;29;20193;-62
2021/09/07 05:00:27;;;;;;;17.30;11.40;;;14.10;99.90;;;;;;4824542;29;20181;-63
2021/09/07 05:02:53;;;;;;;11.47;8.60;;;14.10;99.90;;;;;;4820644;29;20433;-64
2021/09/07 05:05:18;;;;;;;15.10;9.40;;;14.20;99.90;;;;;;4824587;29;20653;-64
2021/09/07 05:07:44;;;;;;;12.60;9.27;;;14.30;99.90;;;;;;4823478;29;20709;-63
2021/09/07 05:10:10;;;;;;;14.23;9.67;;;14.30;99.90;;;;;;4823092;29;20206;-62
2021/09/07 05:12:36;;;;;;;13.00;9.80;;;14.30;99.90;;;;;;4824797;29;20652;-64
2021/09/07 05:15:01;;;;;;;13.80;9.50;;;14.40;99.90;;;;;;4824478;29;20577;-62
2021/09/07 05:17:27;;;;;;;14.07;9.67;;;14.50;99.90;;;;;;4821075;29;20190;-62
2021/09/07 05:19:53;;;;;;;13.87;10.20;;;14.50;99.90;;;;;;4822168;29;20214;-63
2021/09/07 05:22:18;;;;;;;13.63;9.63;;;14.60;99.90;;;;;;4820400;29;20493;-63
2021/09/07 05:24:44;;;;;;;18.50;10.30;;;14.70;99.90;;;;;;4820981;29;20249;-63
2021/09/07 05:27:09;;;;;;;15.20;10.90;;;14.70;99.90;;;;;;4820658;29;20182;-63
2021/09/07 05:29:35;;;;;;;14.57;10.40;;;14.80;99.90;;;;;;4819153;29;20209;-64
2021/09/07 05:32:01;;;;;;;18.73;10.97;;;14.80;99.90;;;;;;4819114;29;20200;-64
2021/09/07 05:34:29;;;;;;;14.03;10.20;;;14.90;99.90;;;;;;4820007;29;20273;-63
2021/09/07 05:36:55;;;;;;;16.57;10.10;;;15.00;99.90;;;;;;4823716;29;20182;-62
2021/09/07 05:39:21;;;;;;;17.23;12.20;;;15.00;99.90;;;;;;4824315;29;20888;-63
2021/09/07 05:41:48;;;;;;;15.30;10.93;;;15.00;99.90;;;;;;4824151;29;20189;-63
2021/09/07 05:44:14;;;;;;;15.30;10.43;;;15.10;99.90;;;;;;4823761;29;20217;-64
2021/09/07 05:46:39;;;;;;;14.83;10.53;;;15.20;99.90;;;;;;4820213;29;20441;-62
2021/09/07 05:49:05;;;;;;;16.23;11.87;;;15.20;99.90;;;;;;4821028;29;20225;-62
2021/09/07 05:51:30;;;;;;;20.23;11.47;;;15.30;99.90;;;;;;4822147;29;20186;-63
2021/09/07 05:53:56;;;;;;;16.60;11.47;;;15.30;99.90;;;;;;4820661;29;20736;-62
2021/09/07 05:56:22;;;;;;;17.20;12.90;;;15.40;99.90;;;;;;4822047;29;20233;-64
2021/09/07 05:58:48;;;;;;;20.17;12.83;;;15.50;99.90;;;;;;4822110;29;20610;-63
2021/09/07 06:01:14;;;;;;;17.00;11.00;;;15.50;99.90;;;;;;4821730;29;20431;-64
2021/09/07 06:03:39;;;;;;;16.03;11.40;;;15.60;99.90;;;;;;4816833;29;20206;-64
2021/09/07 06:06:05;;;;;;;15.87;11.47;;;15.60;99.90;;;;;;4815964;29;20659;-64
2021/09/07 06:08:31;;;;;;;19.43;12.33;;;15.70;99.90;;;;;;4818225;29;20274;-64
2021/09/07 06:10:56;;;;;;;18.07;12.57;;;15.80;99.90;;;;;;4822504;29;20193;-63
2021/09/07 06:13:22;;;;;;;15.27;11.00;;;15.80;99.90;;;;;;4819116;29;20982;-63
2021/09/07 06:15:49;;;;;;;16.90;12.13;;;16.00;99.90;;;;;;4816826;29;20323;-62
2021/09/07 06:18:14;;;;;;;16.37;10.00;;;16.00;99.90;;;;;;4814981;29;20221;-64
2021/09/07 06:20:40;;;;;;;14.60;10.60;;;16.10;99.90;;;;;;4817423;29;20426;-63
2021/09/07 06:23:06;;;;;;;16.43;9.70;;;16.20;99.90;;;;;;4816028;29;20198;-62
2021/09/07 06:25:32;;;;;;;14.00;10.10;;;16.30;99.90;;;;;;4818996;29;20215;-64
2021/09/07 06:27:57;;;;;;;16.70;10.57;;;16.50;99.90;;;;;;4819577;29;20456;-62
2021/09/07 06:30:24;;;;;;;17.43;10.27;;;16.60;99.90;;;;;;4817465;29;20524;-63
2021/09/07 06:32:49;;;;;;;12.60;9.93;;;16.80;99.90;;;;;;4817467;29;20281;-65
2021/09/07 06:35:15;;;;;;;17.97;9.30;;;16.90;99.90;;;;;;4809336;29;20572;-63
2021/09/07 06:37:42;;;;;;;14.57;9.73;;;17.00;99.90;;;;;;4822226;29;20190;-64
2021/09/07 06:40:11;;;;;;;14.30;9.10;;;17.20;99.90;;;;;;4822274;29;20286;-63
2021/09/07 06:42:36;;;;;;;13.37;8.90;;;17.30;99.90;;;;;;4821405;29;20441;-63
2021/09/07 06:45:06;;;;;;;10.60;8.83;;;17.40;99.90;;;;;;4824524;29;20457;-63
2021/09/07 06:47:31;;;;;;;10.10;8.03;;;17.60;99.90;;;;;;4822404;29;20625;-63
2021/09/07 06:50:00;;;;;;;13.40;8.20;;;17.80;99.90;;;;;;4816862;29;20504;-64
2021/09/07 06:52:25;;;;;;;10.43;7.93;;;17.90;99.90;;;;;;4822920;29;20212;-65
2021/09/07 06:54:51;;;;;;;11.27;7.43;;;18.10;99.90;;;;;;4825047;29;20610;-63
2021/09/07 06:57:17;;;;;;;11.63;7.40;;;18.20;99.90;;;;;;4824206;29;20190;-65
2021/09/07 06:59:42;;;;;;;11.87;7.50;;;18.40;99.90;;;;;;4825364;29;20292;-63
2021/09/07 07:02:08;;;;;;;12.87;7.90;;;18.50;99.90;;;;;;4825319;29;20568;-63
2021/09/07 07:04:33;;;;;;;16.13;8.80;;;18.70;99.90;;;;;;4824091;29;20289;-64
2021/09/07 07:06:59;;;;;;;9.20;6.43;;;18.80;99.90;;;;;;4822230;29;20190;-63
2021/09/07 07:09:24;;;;;;;11.07;7.83;;;19.00;99.90;;;;;;4820081;29;20221;-63
2021/09/07 07:11:50;;;;;;;12.87;6.97;;;19.10;99.90;;;;;;4822648;29;20228;-63
2021/09/07 07:14:20;;;;;;;12.53;7.00;;;19.30;99.90;;;;;;4824825;29;20238;-63
2021/09/07 07:16:46;;;;;;;9.50;6.37;;;19.50;99.90;;;;;;4823104;29;20186;-64
2021/09/07 07:19:12;;;;;;;8.00;6.40;;;19.60;99.90;;;;;;4825552;29;20498;-63
2021/09/07 07:21:38;;;;;;;8.33;5.80;;;19.80;99.90;;;;;;4826043;29;20520;-63
2021/09/07 07:24:03;;;;;;;9.93;6.60;;;19.90;99.90;;;;;;4825919;29;20227;-63
2021/09/07 07:26:29;;;;;;;8.53;6.27;;;20.00;99.90;;;;;;4824820;29;20186;-64
2021/09/07 07:28:55;;;;;;;8.03;5.90;;;20.20;99.90;;;;;;4824448;29;20212;-63
2021/09/07 07:31:20;;;;;;;6.17;4.97;;;20.30;99.90;;;;;;4825735;29;20651;-64
2021/09/07 07:33:46;;;;;;;7.60;5.67;;;20.40;99.90;;;;;;4824926;29;20281;-63
2021/09/07 07:36:12;;;;;;;7.70;5.87;;;20.60;99.90;;;;;;4821525;29;20343;-64
2021/09/07 07:38:37;;;;;;;11.37;6.57;;;20.70;99.90;;;;;;4813674;29;20220;-63
2021/09/07 07:41:03;;;;;;;8.30;6.73;;;20.80;99.90;;;;;;4820188;29;20665;-64
2021/09/07 07:43:35;;;;;;;5.97;5.10;;;20.90;99.90;;;;;;4821585;29;20638;-63
2021/09/07 07:46:02;;;;;;;9.03;6.30;;;21.10;99.90;;;;;;4809884;29;20193;-64
2021/09/07 07:48:28;;;;;;;7.03;6.10;;;21.20;99.90;;;;;;4807639;29;20478;-63
2021/09/07 07:50:53;;;;;;;8.20;6.90;;;21.30;99.90;;;;;;4812905;29;20433;-64
2021/09/07 07:53:19;;;;;;;6.80;5.73;;;21.40;99.90;;;;;;4821415;29;20213;-63
2021/09/07 07:55:44;;;;;;;6.57;5.00;;;21.50;99.90;;;;;;4810349;29;20281;-63
2021/09/07 07:58:10;;;;;;;6.73;5.10;;;21.70;99.90;;;;;;4817125;29;20197;-63
2021/09/07 08:00:36;;;;;;;9.80;5.90;;;21.80;99.90;;;;;;4810104;29;20250;-64
2021/09/07 08:03:01;;;;;;;6.53;5.17;;;21.90;99.90;;;;;;4812700;29;20797;-63
2021/09/07 08:05:27;;;;;;;9.10;5.80;;;22.00;99.90;;;;;;4812891;29;20297;-64
2021/09/07 08:07:52;;;;;;;5.73;5.07;;;22.00;99.90;;;;;;4814254;29;20604;-63
2021/09/07 08:10:18;;;;;;;7.70;5.40;;;22.10;99.90;;;;;;4822399;29;20186;-63
2021/09/07 08:12:44;;;;;;;8.63;5.00;;;22.30;99.90;;;;;;4820338;29;20564;-63
2021/09/07 08:15:10;;;;;;;6.77;4.97;;;22.30;99.90;;;;;;4823174;29;20222;-63
2021/09/07 08:17:36;;;;;;;10.87;5.80;;;22.50;99.10;;;;;;4822879;29;20452;-64
2021/09/07 08:20:02;;;;;;;7.93;6.17;;;22.60;99.30;;;;;;4812115;29;20529;-64
2021/09/07 08:22:28;;;;;;;10.33;5.87;;;22.70;98.80;;;;;;4816291;29;20190;-64
2021/09/07 08:24:54;;;;;;;6.80;5.10;;;22.80;98.60;;;;;;4820353;29;21096;-63
2021/09/07 08:27:20;;;;;;;8.00;5.37;;;22.90;98.60;;;;;;4815423;29;20289;-64
2021/09/07 08:29:45;;;;;;;7.77;4.50;;;23.10;98.10;;;;;;4817601;29;20588;-64
2021/09/07 08:32:11;;;;;;;5.70;5.07;;;23.20;98.20;;;;;;4818753;29;20953;-64
2021/09/07 08:34:37;;;;;;;8.63;6.17;;;23.40;97.70;;;;;;4816318;29;20300;-64
2021/09/07 08:37:04;;;;;;;5.57;4.17;;;23.80;97.70;;;;;;4817887;29;20190;-65
2021/09/07 08:39:29;;;;;;;15.50;6.30;;;24.60;96.80;;;;;;4816177;29;20251;-65
2021/09/07 08:41:55;;;;;;;7.20;5.07;;;25.40;95.10;;;;;;4816617;29;20526;-65
2021/09/07 08:44:21;;;;;;;7.13;5.60;;;26.20;94.20;;;;;;4816277;29;20252;-65
2021/09/07 08:46:46;;;;;;;6.30;5.70;;;26.80;93.30;;;;;;4817101;29;20205;-66
2021/09/07 08:49:19;;;;;;;7.40;5.20;;;27.20;92.20;;;;;;4816712;29;20707;-64
2021/09/07 08:51:45;;;;;;;5.83;5.20;;;27.40;91.40;;;;;;4818230;29;20201;-65
2021/09/07 08:54:11;;;;;;;9.47;5.00;;;27.30;91.20;;;;;;4813014;29;20553;-64
2021/09/07 08:56:37;;;;;;;9.20;5.40;;;27.10;91.40;;;;;;4817488;29;20904;-65
2021/09/07 08:59:04;;;;;;;6.37;5.60;;;26.80;90.90;;;;;;4813729;29;20300;-64
2021/09/07 09:01:41;;;;;;;8.90;5.33;;;26.50;90.50;;;;;;4819628;29;20451;-66
2021/09/07 09:04:24;;;;;;;7.37;5.13;;;26.20;90.90;;;;;;4810784;29;20988;-66
2021/09/07 09:06:50;;;;;;;7.50;5.00;;;26.00;90.60;;;;;;4819463;29;20428;-64
2021/09/07 09:09:16;;;;;;;6.00;4.97;;;25.80;91.20;;;;;;4813572;29;20982;-64
2021/09/07 09:11:57;;;;;;;8.80;4.63;;;25.60;90.30;;;;;;4823928;29;20282;-61
2021/09/07 09:14:39;;;;;;;6.73;5.53;;;25.50;90.10;;;;;;4818616;29;20213;-63
2021/09/07 09:17:29;;;;;;;6.73;5.30;;;25.50;90.40;;;;;;4822557;29;20967;-61
2021/09/07 09:20:08;;;;;;;6.53;5.40;;;25.50;90.20;;;;;;4825364;29;20478;-62
2021/09/07 09:22:54;;;;;;;6.33;5.50;;;25.50;90.40;;;;;;4819213;29;20859;-63
2021/09/07 09:25:20;;;;;;;10.10;5.30;;;25.50;89.50;;;;;;4810664;29;20464;-63
2021/09/07 09:28:10;;;;;;;5.37;4.87;;;25.50;89.50;;;;;;4814747;29;20936;-63
2021/09/07 09:30:50;;;;;;;7.00;4.70;;;25.50;90.10;;;;;;4808322;29;20672;-64
2021/09/07 09:33:22;;;;;;;6.20;5.43;;;25.50;89.00;;;;;;4819220;29;20502;-65
2021/09/07 09:36:06;;;;;;;6.90;6.00;;;25.60;88.40;;;;;;4819574;29;20588;-63
2021/09/07 09:38:34;;;;;;;6.00;5.13;;;25.60;86.80;;;;;;4817511;29;20472;-65
2021/09/07 09:41:08;;;;;;;6.37;4.70;;;25.60;88.00;;;;;;4808496;29;20441;-64
2021/09/07 09:43:42;;;;;;;5.90;5.00;;;25.60;86.80;;;;;;4812706;29;20479;-66
2021/09/07 09:46:30;;;;;;;6.23;4.57;;;25.70;88.00;;;;;;4812125;29;20507;-63
2021/09/07 09:49:13;;;;;;;5.90;5.07;;;25.70;86.20;;;;;;4812235;29;20476;-65
2021/09/07 09:51:41;;;;;;;6.00;4.73;;;25.80;86.60;;;;;;4811775;29;20549;-65
2021/09/07 09:54:07;;;;;;;7.33;5.23;;;25.90;85.50;;;;;;4822899;29;20479;-65
2021/09/07 09:56:34;;;;;;;8.10;5.77;;;25.90;85.30;;;;;;4822318;29;20488;-64
2021/09/07 09:59:01;;;;;;;6.30;5.33;;;25.90;84.70;;;;;;4820220;29;20504;-63
2021/09/07 10:01:30;;;;;;;6.40;4.80;;;25.90;85.40;;;;;;4823269;29;20441;-64
2021/09/07 10:04:00;;;;;;;7.13;5.27;;;25.90;85.10;;;;;;4822299;29;20477;-63
2021/09/07 10:06:26;;;;;;;5.00;4.17;;;26.00;84.80;;;;;;4821620;29;20452;-64
2021/09/07 10:08:53;;;;;;;5.90;4.57;;;26.00;84.60;;;;;;4820937;29;20714;-63
2021/09/07 10:11:26;;;;;;;7.10;5.70;;;26.00;84.10;;;;;;4821339;29;20979;-63
2021/09/07 10:13:55;;;;;;;6.50;5.10;;;26.10;83.20;;;;;;4821578;29;20475;-63
2021/09/07 10:16:38;;;;;;;6.70;5.13;;;26.00;82.50;;;;;;4821315;29;20516;-63
2021/09/07 10:24:51;;;;;;;6.00;5.40;;;25.90;84.60;;;;;;4815218;29;20979;-65
2021/09/07 10:27:16;;;;;;;7.17;5.40;;;25.80;82.10;;;;;;4815096;29;20445;-64
2021/09/07 10:29:42;;;;;;;5.83;5.23;;;25.80;82.00;;;;;;4821653;29;20490;-65
2021/09/07 10:32:25;;;;;;;6.60;5.37;;;25.80;81.60;;;;;;4823752;29;20238;-64
2021/09/07 10:35:09;;;;;;;7.70;5.23;;;25.70;82.60;;;;;;4816867;29;20523;-65
2021/09/07 10:38:23;;;;;;;5.63;5.03;;;25.80;82.60;;;;;;4827539;29;20441;-63
2021/09/07 10:40:51;;;;;;;6.17;4.77;;;25.80;83.10;;;;;;4814118;29;20500;-63
2021/09/07 10:43:52;;;;;;;6.53;5.00;;;25.80;82.10;;;;;;4818781;29;20477;-67
2021/09/07 10:46:39;;;;;;;5.70;4.93;;;25.80;84.00;;;;;;4815795;29;21149;-66
2021/09/07 10:49:46;;;;;;;5.77;5.17;;;25.80;84.40;;;;;;4827604;29;20588;-63
2021/09/07 10:52:23;;;;;;;5.37;4.13;;;25.80;81.90;;;;;;4811160;29;20713;-63
2021/09/07 10:55:08;;;;;;;6.53;5.20;;;25.90;81.00;;;;;;4817893;29;20488;-63
2021/09/07 10:57:43;;;;;;;6.07;5.17;;;25.90;81.10;;;;;;4818780;29;20449;-65
2021/09/07 11:00:21;;;;;;;6.80;5.10;;;26.00;83.00;;;;;;4811039;29;20508;-63
2021/09/07 11:02:55;;;;;;;6.80;5.27;;;26.00;82.20;;;;;;4818367;29;20445;-63
2021/09/07 11:05:24;;;;;;;7.10;4.23;;;26.10;79.80;;;;;;4816030;29;20446;-65
2021/09/07 11:07:51;;;;;;;7.47;5.13;;;26.10;79.70;;;;;;4811869;29;20451;-63
2021/09/07 11:10:17;;;;;;;7.70;5.40;;;26.10;79.80;;;;;;4815278;29;20457;-65
2021/09/07 11:13:03;;;;;;;5.30;4.80;;;26.10;80.60;;;;;;4816695;29;20501;-63
2021/09/07 11:15:32;;;;;;;7.67;5.20;;;26.20;77.60;;;;;;4817342;29;20213;-63
2021/09/07 11:18:06;;;;;;;7.93;4.70;;;26.20;77.60;;;;;;4820434;29;21061;-63
2021/09/07 11:20:38;;;;;;;5.67;4.20;;;26.20;80.00;;;;;;4821457;29;20547;-65
2021/09/07 11:23:17;;;;;;;5.27;4.77;;;26.20;84.70;;;;;;4820151;29;20565;-63
2021/09/07 11:25:49;;;;;;;8.93;5.13;;;26.20;77.90;;;;;;4815880;29;20896;-63
2021/09/07 11:28:17;;;;;;;5.63;4.60;;;26.20;79.30;;;;;;4817538;29;21000;-63
2021/09/07 11:30:44;;;;;;;5.10;4.60;;;26.20;77.30;;;;;;4819069;29;20896;-64
2021/09/07 11:33:15;;;;;;;6.43;5.00;;;26.20;77.60;;;;;;4817777;29;20541;-63
2021/09/07 11:35:47;;;;;;;9.00;5.40;;;26.20;78.60;;;;;;4818352;29;21079;-63
2021/09/07 11:38:16;;;;;;;6.00;4.30;;;26.20;78.50;;;;;;4822419;29;20485;-63
2021/09/07 11:40:45;;;;;;;5.50;4.80;;;26.20;81.20;;;;;;4820334;29;20548;-64
2021/09/07 11:43:12;;;;;;;5.43;4.90;;;26.20;81.30;;;;;;4820989;29;20449;-63
2021/09/07 11:45:38;;;;;;;6.33;4.83;;;26.20;82.00;;;;;;4819326;29;20441;-63
2021/09/07 11:48:06;;;;;;;5.77;5.10;;;26.20;77.40;;;;;;4812878;29;20773;-64
2021/09/07 11:50:38;;;;;;;6.40;5.40;;;26.20;77.20;;;;;;4818903;29;21000;-64
2021/09/07 11:53:06;;;;;;;5.83;4.53;;;26.20;77.10;;;;;;4816597;29;20947;-63
2021/09/07 11:55:40;;;;;;;5.67;5.03;;;26.10;77.90;;;;;;4822388;29;20480;-64
2021/09/07 11:58:07;;;;;;;7.47;5.37;;;26.10;78.40;;;;;;4817359;29;20777;-63
2021/09/07 12:00:34;;;;;;;6.40;4.90;;;26.20;78.20;;;;;;4819973;29;20441;-63
2021/09/07 12:03:36;;;;;;;6.50;5.30;;;26.20;77.50;;;;;;4825474;29;20448;-63
2021/09/07 12:06:02;;;;;;;5.57;5.07;;;26.30;76.90;;;;;;4775316;29;21271;-64
2021/09/07 12:08:33;;;;;;;6.03;4.80;;;26.30;75.90;;;;;;4821264;29;20484;-63
2021/09/07 12:10:59;;;;;;;5.50;4.63;;;26.30;78.80;;;;;;4823291;29;20460;-64
2021/09/07 12:13:25;;;;;;;6.37;4.70;;;26.40;79.20;;;;;;4822439;29;20469;-63
2021/09/07 12:15:51;;;;;;;6.13;5.20;;;26.40;75.90;;;;;;4819695;29;20229;-63
2021/09/07 12:18:35;;;;;;;5.30;4.30;;;26.40;76.00;;;;;;4820909;29;20213;-63
2021/09/07 12:21:14;;;;;;;6.90;5.37;;;26.40;76.30;;;;;;4820558;29;20444;-64
2021/09/07 12:23:46;;;;;;;6.57;4.73;;;26.40;75.00;;;;;;4818982;29;20922;-64
2021/09/07 12:26:12;;;;;;;5.67;4.47;;;26.40;75.60;;;;;;4818824;29;20468;-63
2021/09/07 12:28:39;;;;;;;7.10;4.63;;;26.40;75.50;;;;;;4818587;29;20484;-64
2021/09/07 12:31:11;;;;;;;6.60;5.50;;;26.40;75.70;;;;;;4823728;29;20927;-63
2021/09/07 12:33:52;;;;;;;6.30;4.80;;;26.40;76.30;;;;;;4814166;29;20465;-63
2021/09/07 12:36:20;;;;;;;6.60;5.60;;;26.40;76.40;;;;;;4818815;29;20481;-65
2021/09/07 12:38:46;;;;;;;5.40;4.90;;;26.50;76.80;;;;;;4820357;29;20879;-63
2021/09/07 12:41:16;;;;;;;6.97;5.33;;;26.50;76.40;;;;;;4818133;29;20566;-64
2021/09/07 12:43:44;;;;;;;5.13;4.63;;;26.60;75.00;;;;;;4821723;29;20465;-63
2021/09/07 12:46:12;;;;;;;7.70;4.83;;;26.60;76.00;;;;;;4811091;29;20789;-63
2021/09/07 12:48:40;;;;;;;5.40;4.77;;;26.60;74.90;;;;;;4817609;29;21175;-63
2021/09/07 12:51:07;;;;;;;5.93;4.97;;;26.70;75.60;;;;;;4815324;29;20530;-63